Time;durP1;ratioP1;P1;durP2;ratioP2;P2;SDS_P1;SDS_P2;PMS_P1;PMS_P2;Temp;Humidity;BMP_temperature;BMP_pressure;BME280_temperature;BME280_humidity;BME280_pressure;Samples;Min_cycle;Max_cycle;Signal;HPM_P1;HPM_P2
2020/12/22 00:01:04;;;;;;;28.10;16.80;;;5.10;99.90;;;;;;5035435;28;20028;-59
2020/12/22 00:03:29;;;;;;;30.25;17.33;;;5.10;99.90;;;;;;5044038;28;20052;-59
2020/12/22 00:05:55;;;;;;;30.70;15.98;;;5.10;99.90;;;;;;5039899;28;20077;-58
2020/12/22 00:08:20;;;;;;;24.10;13.75;;;5.20;99.90;;;;;;5029265;28;20026;-59
2020/12/22 00:10:46;;;;;;;32.95;14.07;;;5.10;99.90;;;;;;5032920;28;20029;-59
2020/12/22 00:13:11;;;;;;;26.30;15.40;;;5.20;99.90;;;;;;5034845;28;20548;-59
2020/12/22 00:15:37;;;;;;;28.75;15.18;;;5.20;99.90;;;;;;5033899;28;20036;-58
2020/12/22 00:18:02;;;;;;;26.00;16.00;;;5.20;99.90;;;;;;5068129;28;20059;-59
2020/12/22 00:20:28;;;;;;;25.55;14.98;;;5.20;99.90;;;;;;5039347;28;20481;-58
2020/12/22 00:22:53;;;;;;;27.98;15.85;;;5.30;99.90;;;;;;5039479;28;20111;-59
2020/12/22 00:25:19;;;;;;;30.63;16.45;;;5.30;99.90;;;;;;5037334;28;20036;-58
2020/12/22 00:27:44;;;;;;;31.92;17.30;;;5.40;99.90;;;;;;5040247;28;20029;-59
2020/12/22 00:30:10;;;;;;;31.52;16.45;;;5.40;99.90;;;;;;5053603;28;20474;-59
2020/12/22 00:32:35;;;;;;;29.13;15.85;;;5.40;99.90;;;;;;5041788;28;20037;-59
2020/12/22 00:35:01;;;;;;;29.88;16.45;;;5.50;99.90;;;;;;5042779;28;20033;-59
2020/12/22 00:37:27;;;;;;;31.48;17.20;;;5.50;99.90;;;;;;5039701;28;20037;-59
2020/12/22 00:39:52;;;;;;;30.23;17.30;;;5.50;99.90;;;;;;5037037;28;20061;-58
2020/12/22 00:42:17;;;;;;;36.28;16.33;;;5.50;99.90;;;;;;5043679;28;20037;-59
2020/12/22 00:44:43;;;;;;;27.33;15.40;;;5.50;99.90;;;;;;5048284;28;20040;-58
2020/12/22 00:47:10;;;;;;;30.13;16.15;;;5.50;99.90;;;;;;5046547;28;20097;-59
2020/12/22 00:49:35;;;;;;;26.45;14.65;;;5.60;99.90;;;;;;5045905;28;20548;-59
2020/12/22 00:52:01;;;;;;;29.58;15.85;;;5.60;99.90;;;;;;5036529;28;20128;-59
2020/12/22 00:54:26;;;;;;;29.88;16.67;;;5.60;99.90;;;;;;5045521;28;20025;-58
2020/12/22 00:56:52;;;;;;;31.30;17.23;;;5.60;99.90;;;;;;5046295;28;20047;-58
2020/12/22 00:59:18;;;;;;;31.73;15.70;;;5.70;99.90;;;;;;5048213;28;20028;-58
2020/12/22 01:01:43;;;;;;;34.70;18.50;;;5.60;99.90;;;;;;5053237;28;20032;-59
2020/12/22 01:04:09;;;;;;;35.33;18.30;;;5.70;99.90;;;;;;5041501;28;20544;-59
2020/12/22 01:06:40;;;;;;;35.20;17.13;;;5.70;99.90;;;;;;5047502;28;20032;-59
2020/12/22 01:09:07;;;;;;;39.85;19.27;;;5.70;99.90;;;;;;5047620;28;20043;-59
2020/12/22 01:11:39;;;;;;;27.10;15.75;;;5.80;99.90;;;;;;5047100;28;20021;-58
2020/12/22 01:14:06;;;;;;;30.15;16.20;;;5.80;99.90;;;;;;5049736;28;20029;-58
2020/12/22 01:16:32;;;;;;;29.55;17.88;;;5.70;99.90;;;;;;5039394;28;20071;-58
2020/12/22 01:18:58;;;;;;;35.30;18.90;;;5.70;99.90;;;;;;5038188;28;20052;-59
2020/12/22 01:21:23;;;;;;;29.23;17.02;;;5.80;99.90;;;;;;5038277;28;20400;-59
2020/12/22 01:23:49;;;;;;;27.80;16.88;;;5.80;99.90;;;;;;5041099;28;20038;-59
2020/12/22 01:26:23;;;;;;;30.30;16.00;;;5.80;99.90;;;;;;5037681;28;20359;-58
2020/12/22 01:28:49;;;;;;;31.85;17.30;;;5.80;99.90;;;;;;5041339;28;20021;-59
2020/12/22 01:31:25;;;;;;;34.63;17.63;;;5.80;99.90;;;;;;5037287;28;20124;-59
2020/12/22 01:33:52;;;;;;;33.22;18.30;;;5.80;99.90;;;;;;5046370;28;20497;-59
2020/12/22 01:36:17;;;;;;;36.78;18.77;;;5.80;99.90;;;;;;5066758;28;20033;-59
2020/12/22 01:38:44;;;;;;;32.08;16.65;;;5.80;99.90;;;;;;5034924;28;20108;-59
2020/12/22 01:41:09;;;;;;;32.55;17.30;;;5.90;99.90;;;;;;5040698;28;20024;-59
2020/12/22 01:43:35;;;;;;;34.53;17.20;;;5.90;99.90;;;;;;5060618;28;20044;-60
2020/12/22 01:46:00;;;;;;;33.80;18.25;;;5.90;99.90;;;;;;5041365;28;20065;-59
2020/12/22 01:48:28;;;;;;;26.88;16.67;;;5.90;99.90;;;;;;5040781;28;20018;-58
2020/12/22 01:50:53;;;;;;;31.65;17.10;;;6.00;99.90;;;;;;5037614;28;20052;-58
2020/12/22 01:53:19;;;;;;;30.85;16.95;;;6.00;99.90;;;;;;5041219;28;20025;-59
2020/12/22 01:55:44;;;;;;;33.10;16.42;;;6.00;99.90;;;;;;5040003;28;20032;-59
2020/12/22 01:58:10;;;;;;;28.92;17.10;;;6.00;99.90;;;;;;5040993;28;20026;-59
2020/12/22 02:00:36;;;;;;;34.47;18.75;;;6.00;99.90;;;;;;5045227;28;20033;-59
2020/12/22 02:03:04;;;;;;;28.90;15.50;;;6.00;99.90;;;;;;5033034;28;20033;-59
2020/12/22 02:05:32;;;;;;;31.02;17.55;;;6.00;99.90;;;;;;5034248;28;20103;-59
2020/12/22 02:07:58;;;;;;;30.50;17.38;;;6.00;99.90;;;;;;5034816;28;20467;-58
2020/12/22 02:10:23;;;;;;;26.38;14.65;;;6.00;99.90;;;;;;5040235;28;20030;-60
2020/12/22 02:12:49;;;;;;;22.83;13.13;;;6.00;99.90;;;;;;5051192;28;20051;-59
2020/12/22 02:15:14;;;;;;;33.17;18.30;;;6.00;99.90;;;;;;5042160;28;20139;-59
2020/12/22 02:17:40;;;;;;;37.63;18.98;;;6.10;99.90;;;;;;5051396;28;20078;-59
2020/12/22 02:20:05;;;;;;;32.42;16.88;;;6.10;99.90;;;;;;5036945;28;20041;-58
2020/12/22 02:22:34;;;;;;;32.05;17.20;;;6.10;99.90;;;;;;5044702;28;20033;-59
2020/12/22 02:24:59;;;;;;;34.30;18.80;;;6.20;99.90;;;;;;5045678;28;20025;-58
2020/12/22 02:27:25;;;;;;;29.55;17.35;;;6.20;99.90;;;;;;5040324;28;20610;-59
2020/12/22 02:29:50;;;;;;;36.95;17.63;;;6.30;99.90;;;;;;5049033;28;20029;-59
2020/12/22 02:32:16;;;;;;;28.48;16.77;;;6.30;99.90;;;;;;5050643;28;20107;-59
2020/12/22 02:34:42;;;;;;;28.48;16.42;;;6.30;99.90;;;;;;5045000;28;20033;-60
2020/12/22 02:37:07;;;;;;;28.45;16.63;;;6.30;99.90;;;;;;5041445;28;20417;-58
2020/12/22 02:39:32;;;;;;;24.55;13.82;;;6.30;99.90;;;;;;5035199;28;20052;-59
2020/12/22 02:41:58;;;;;;;32.55;17.73;;;6.30;99.90;;;;;;5044701;28;20470;-59
2020/12/22 02:44:23;;;;;;;25.60;14.50;;;6.30;99.90;;;;;;5035013;28;20021;-59
2020/12/22 02:46:49;;;;;;;32.97;18.50;;;6.40;99.90;;;;;;5040287;28;20029;-58
2020/12/22 02:49:14;;;;;;;37.75;19.67;;;6.40;99.90;;;;;;5037715;28;20116;-59
2020/12/22 02:51:40;;;;;;;35.13;20.90;;;6.30;99.90;;;;;;5040462;28;20029;-59
2020/12/22 02:54:05;;;;;;;36.97;20.08;;;6.30;99.90;;;;;;5033253;28;20062;-59
2020/12/22 02:56:31;;;;;;;28.50;17.42;;;6.20;99.90;;;;;;5040771;28;20029;-59
2020/12/22 02:58:58;;;;;;;39.13;20.75;;;6.10;99.90;;;;;;5040797;28;20033;-59
2020/12/22 03:01:24;;;;;;;41.28;21.05;;;6.10;99.90;;;;;;5037392;28;20383;-58
2020/12/22 03:03:49;;;;;;;38.55;20.98;;;6.00;99.90;;;;;;5036213;28;20025;-58
2020/12/22 03:06:15;;;;;;;37.33;20.67;;;6.00;99.90;;;;;;5037320;28;20072;-60
2020/12/22 03:08:40;;;;;;;33.65;18.48;;;6.00;99.90;;;;;;5036802;28;20200;-59
2020/12/22 03:11:06;;;;;;;33.30;19.10;;;5.90;99.90;;;;;;5034175;28;20067;-58
2020/12/22 03:13:32;;;;;;;39.03;20.33;;;5.90;99.90;;;;;;5036976;28;20025;-59
2020/12/22 03:15:57;;;;;;;35.03;19.08;;;5.90;99.90;;;;;;5035688;28;20375;-59
2020/12/22 03:18:23;;;;;;;36.20;20.77;;;5.90;99.90;;;;;;5045184;28;20040;-59
2020/12/22 03:20:48;;;;;;;33.38;18.83;;;5.80;99.90;;;;;;5037880;28;20569;-59
2020/12/22 03:23:14;;;;;;;32.58;18.77;;;5.80;99.90;;;;;;5035260;28;20037;-59
2020/12/22 03:25:39;;;;;;;42.78;23.15;;;5.80;99.90;;;;;;5035527;28;20492;-59
2020/12/22 03:28:05;;;;;;;35.28;18.85;;;5.80;99.90;;;;;;5034799;28;20057;-59
2020/12/22 03:30:30;;;;;;;38.75;21.63;;;5.80;99.90;;;;;;5038880;28;20017;-59
2020/12/22 03:32:56;;;;;;;43.85;21.15;;;5.70;99.90;;;;;;5037985;28;20102;-59
2020/12/22 03:35:21;;;;;;;38.78;19.83;;;5.70;99.90;;;;;;5033812;28;20083;-59
2020/12/22 03:37:47;;;;;;;37.45;20.63;;;5.70;99.90;;;;;;5032637;28;20059;-59
2020/12/22 03:40:13;;;;;;;40.42;22.17;;;5.70;99.90;;;;;;5031466;28;20151;-59
2020/12/22 03:42:39;;;;;;;36.38;20.33;;;5.70;99.90;;;;;;5042275;28;20120;-59
2020/12/22 03:45:06;;;;;;;39.28;21.02;;;5.70;99.90;;;;;;5036760;28;20113;-58
2020/12/22 03:47:32;;;;;;;42.47;21.42;;;5.70;99.90;;;;;;5043593;28;20021;-59
2020/12/22 03:49:57;;;;;;;43.97;22.35;;;5.70;99.90;;;;;;5040979;28;20078;-60
2020/12/22 03:52:23;;;;;;;49.45;23.20;;;5.70;99.90;;;;;;5038761;28;20120;-59
2020/12/22 03:54:49;;;;;;;38.25;21.33;;;5.70;99.90;;;;;;5041561;28;20053;-60
2020/12/22 03:57:16;;;;;;;47.45;24.35;;;5.60;99.90;;;;;;5043335;28;20025;-58
2020/12/22 03:59:42;;;;;;;42.05;20.80;;;5.60;99.90;;;;;;5039891;28;20120;-58
2020/12/22 04:02:07;;;;;;;43.65;21.75;;;5.60;99.90;;;;;;5042510;28;20029;-58
2020/12/22 04:04:33;;;;;;;47.65;23.27;;;5.60;99.90;;;;;;5046306;28;20034;-59
2020/12/22 04:06:58;;;;;;;47.58;23.40;;;5.60;99.90;;;;;;5030856;28;20033;-59
2020/12/22 04:09:24;;;;;;;50.15;24.38;;;5.60;99.90;;;;;;5041417;28;20025;-59
2020/12/22 04:11:50;;;;;;;46.80;24.83;;;5.60;99.90;;;;;;5032990;28;20040;-59
2020/12/22 04:14:17;;;;;;;46.97;22.63;;;5.60;99.90;;;;;;5044116;28;20065;-60
2020/12/22 04:16:43;;;;;;;48.78;26.48;;;5.60;99.90;;;;;;5032535;28;20530;-59
2020/12/22 04:19:09;;;;;;;53.50;27.08;;;5.60;99.90;;;;;;5038657;28;20029;-59
2020/12/22 04:21:36;;;;;;;57.50;26.42;;;5.60;99.90;;;;;;5041284;28;20044;-59
2020/12/22 04:24:02;;;;;;;47.22;21.75;;;5.60;99.90;;;;;;5036903;28;20045;-58
2020/12/22 04:26:27;;;;;;;45.92;24.02;;;5.60;99.90;;;;;;5035242;28;20039;-59
2020/12/22 04:28:54;;;;;;;41.30;22.50;;;5.60;99.90;;;;;;5032542;28;20490;-58
2020/12/22 04:31:22;;;;;;;39.10;22.40;;;5.70;99.90;;;;;;5032303;28;20041;-59
2020/12/22 04:33:49;;;;;;;42.83;22.65;;;5.70;99.90;;;;;;5043218;28;20401;-59
2020/12/22 04:36:16;;;;;;;42.10;21.38;;;5.70;99.90;;;;;;5031564;28;20026;-59
2020/12/22 04:38:41;;;;;;;43.05;23.00;;;5.70;99.90;;;;;;5033719;28;20029;-59
2020/12/22 04:41:14;;;;;;;38.88;20.48;;;5.70;99.90;;;;;;5038364;28;20037;-59
2020/12/22 04:43:44;;;;;;;48.28;24.52;;;5.70;99.90;;;;;;5041299;28;20064;-59
2020/12/22 04:46:10;;;;;;;43.30;24.45;;;5.70;99.90;;;;;;5038150;28;20064;-59
2020/12/22 04:48:38;;;;;;;34.63;19.23;;;5.80;99.90;;;;;;5038541;28;20068;-59
2020/12/22 04:51:06;;;;;;;44.35;23.95;;;5.80;99.90;;;;;;5036402;28;20041;-59
2020/12/22 04:53:32;;;;;;;47.85;23.70;;;5.80;99.90;;;;;;5042304;28;20028;-59
2020/12/22 04:55:59;;;;;;;32.15;17.60;;;5.90;99.90;;;;;;5031706;28;20506;-59
2020/12/22 04:58:27;;;;;;;29.48;17.30;;;5.80;99.90;;;;;;5036936;28;20046;-59
2020/12/22 05:00:53;;;;;;;37.72;20.45;;;5.80;99.90;;;;;;5036128;28;20033;-59
2020/12/22 05:03:21;;;;;;;32.85;17.88;;;5.80;99.90;;;;;;5031069;28;20455;-59
2020/12/22 05:05:46;;;;;;;35.60;18.70;;;5.80;99.90;;;;;;5034031;28;20507;-59
2020/12/22 05:08:12;;;;;;;36.08;19.55;;;5.90;99.90;;;;;;5033489;28;20104;-59
2020/12/22 05:10:41;;;;;;;35.88;18.92;;;5.90;99.90;;;;;;5043386;28;20033;-59
2020/12/22 05:13:09;;;;;;;28.73;16.98;;;5.90;99.90;;;;;;5045887;28;20072;-59
2020/12/22 05:15:34;;;;;;;35.63;21.52;;;6.00;99.90;;;;;;5041708;28;20033;-59
2020/12/22 05:18:01;;;;;;;27.73;16.17;;;6.00;99.90;;;;;;5040993;28;20467;-59
2020/12/22 05:20:27;;;;;;;32.20;17.98;;;6.10;99.90;;;;;;5036813;28;20111;-59
2020/12/22 05:22:54;;;;;;;29.58;16.70;;;6.10;99.90;;;;;;5040636;28;20104;-59
2020/12/22 05:25:21;;;;;;;25.58;13.65;;;6.20;99.90;;;;;;5041445;28;20025;-59
2020/12/22 05:27:51;;;;;;;31.42;18.08;;;6.20;99.90;;;;;;5048222;28;20060;-59
2020/12/22 05:30:17;;;;;;;27.27;15.38;;;6.20;99.90;;;;;;5044518;28;20044;-59
2020/12/22 05:32:48;;;;;;;24.75;14.05;;;6.20;99.90;;;;;;5038854;28;20192;-59
2020/12/22 05:35:13;;;;;;;29.50;16.60;;;6.30;99.90;;;;;;5073430;28;20028;-59
2020/12/22 05:37:45;;;;;;;27.88;15.60;;;6.30;99.90;;;;;;5042035;28;20030;-59
2020/12/22 05:40:11;;;;;;;29.40;17.50;;;6.30;99.90;;;;;;5039555;28;20039;-59
2020/12/22 05:42:37;;;;;;;23.25;15.25;;;6.30;99.90;;;;;;5046423;28;20050;-59
2020/12/22 05:45:07;;;;;;;27.42;15.07;;;6.40;99.90;;;;;;5043821;28;20033;-59
2020/12/22 05:47:32;;;;;;;34.53;19.60;;;6.40;99.90;;;;;;5037073;28;20021;-59
2020/12/22 05:49:59;;;;;;;28.52;15.13;;;6.50;99.90;;;;;;5039785;28;20090;-59
2020/12/22 05:52:26;;;;;;;33.72;18.73;;;6.50;99.90;;;;;;5036806;28;20069;-59
2020/12/22 05:54:54;;;;;;;36.97;19.67;;;6.50;99.90;;;;;;5041642;28;20041;-59
2020/12/22 05:57:27;;;;;;;30.70;17.38;;;6.60;99.90;;;;;;5037632;28;20504;-59
2020/12/22 05:59:53;;;;;;;25.10;13.63;;;6.60;99.90;;;;;;5041117;28;20032;-59
2020/12/22 06:02:32;;;;;;;31.33;15.60;;;6.60;99.90;;;;;;5038985;28;20059;-58
2020/12/22 06:05:02;;;;;;;28.92;15.60;;;6.60;99.90;;;;;;5034180;28;20021;-59
2020/12/22 06:07:28;;;;;;;23.85;12.57;;;6.60;99.90;;;;;;5038990;28;20474;-59
2020/12/22 06:09:55;;;;;;;28.83;16.08;;;6.70;99.90;;;;;;5037325;28;20040;-58
2020/12/22 06:12:22;;;;;;;27.98;13.05;;;6.70;99.90;;;;;;5036213;28;20371;-59
2020/12/22 06:14:54;;;;;;;19.67;11.20;;;6.70;99.90;;;;;;5037170;28;20026;-59
2020/12/22 06:17:20;;;;;;;25.70;13.98;;;6.70;99.90;;;;;;5041168;28;20028;-58
2020/12/22 06:19:47;;;;;;;20.35;10.88;;;6.80;99.90;;;;;;5033862;28;20021;-59
2020/12/22 06:22:17;;;;;;;16.15;9.38;;;6.80;99.90;;;;;;5043305;28;20044;-59
2020/12/22 06:24:52;;;;;;;22.98;14.20;;;6.80;99.90;;;;;;5037523;28;20154;-59
2020/12/22 06:27:17;;;;;;;29.55;14.88;;;6.80;99.90;;;;;;5035876;28;20101;-59
2020/12/22 06:29:45;;;;;;;22.00;13.05;;;6.90;99.90;;;;;;5035396;28;20183;-59
2020/12/22 06:32:27;;;;;;;18.30;10.35;;;6.90;99.90;;;;;;5034577;28;20638;-59
2020/12/22 06:35:03;;;;;;;16.10;9.13;;;6.90;99.90;;;;;;5034034;28;20021;-59
2020/12/22 06:37:42;;;;;;;23.45;12.57;;;6.90;99.90;;;;;;5036351;28;20038;-59
2020/12/22 06:40:09;;;;;;;19.90;10.98;;;6.90;99.90;;;;;;5037760;28;20033;-59
2020/12/22 06:42:41;;;;;;;19.10;9.63;;;6.90;99.90;;;;;;5037918;28;20022;-58
2020/12/22 06:45:24;;;;;;;15.55;9.10;;;6.90;99.90;;;;;;5041897;28;20109;-58
2020/12/22 06:47:50;;;;;;;15.35;9.80;;;6.90;99.90;;;;;;5040051;28;20025;-59
2020/12/22 06:50:40;;;;;;;17.00;8.90;;;7.00;99.90;;;;;;5041893;28;20048;-59
2020/12/22 06:53:26;;;;;;;15.73;9.23;;;7.00;99.90;;;;;;5031090;28;20041;-61
2020/12/22 06:55:52;;;;;;;13.17;8.50;;;7.00;99.90;;;;;;5035046;28;20025;-59
2020/12/22 06:58:37;;;;;;;11.00;7.20;;;7.10;99.90;;;;;;5035794;28;20823;-59
2020/12/22 07:01:24;;;;;;;15.73;7.78;;;7.10;99.90;;;;;;5033567;28;20057;-59
2020/12/22 07:03:50;;;;;;;13.60;8.20;;;7.20;99.90;;;;;;5036798;28;20111;-59
2020/12/22 07:06:49;;;;;;;11.10;6.80;;;7.20;99.90;;;;;;5036701;28;20028;-59
2020/12/22 07:09:28;;;;;;;10.45;5.57;;;7.30;99.90;;;;;;5038359;28;20018;-59
2020/12/22 07:12:07;;;;;;;7.57;4.70;;;7.30;99.90;;;;;;5035994;28;20096;-59
2020/12/22 07:14:32;;;;;;;10.40;6.38;;;7.30;99.90;;;;;;5032178;28;20052;-59
2020/12/22 07:17:03;;;;;;;10.88;7.13;;;7.40;99.90;;;;;;5033627;28;20114;-59
2020/12/22 07:19:31;;;;;;;15.15;7.97;;;7.40;99.90;;;;;;5036622;28;20032;-61
2020/12/22 07:22:05;;;;;;;15.95;8.48;;;7.40;99.90;;;;;;5031847;28;20029;-59
2020/12/22 07:24:38;;;;;;;9.75;5.72;;;7.50;99.90;;;;;;5032540;28;20509;-59
2020/12/22 07:27:07;;;;;;;6.70;4.93;;;7.60;99.90;;;;;;5037113;28;20477;-59
2020/12/22 07:29:34;;;;;;;11.82;7.03;;;7.60;99.90;;;;;;5032656;28;20025;-59
2020/12/22 07:32:01;;;;;;;12.60;7.25;;;7.70;99.90;;;;;;5039142;28;20035;-60
2020/12/22 07:34:26;;;;;;;10.90;6.35;;;7.70;99.90;;;;;;5039678;28;20377;-59
2020/12/22 07:37:11;;;;;;;9.98;5.30;;;7.80;99.90;;;;;;5035686;28;20116;-62
2020/12/22 07:39:38;;;;;;;7.78;5.20;;;7.80;99.90;;;;;;5041360;28;20017;-59
2020/12/22 07:42:11;;;;;;;6.82;3.83;;;7.90;99.90;;;;;;5036279;28;20014;-60
2020/12/22 07:44:37;;;;;;;10.18;6.40;;;7.90;99.90;;;;;;5042807;28;20533;-59
2020/12/22 07:47:03;;;;;;;7.00;4.55;;;8.00;99.90;;;;;;5044636;28;20109;-59
2020/12/22 07:49:29;;;;;;;6.07;4.57;;;8.00;99.90;;;;;;5036735;28;20491;-59
2020/12/22 07:51:55;;;;;;;7.75;5.22;;;8.10;99.90;;;;;;5032921;28;20026;-59
2020/12/22 07:54:20;;;;;;;5.65;4.40;;;8.10;99.90;;;;;;5037240;28;20055;-59
2020/12/22 07:56:46;;;;;;;6.43;4.00;;;8.20;99.90;;;;;;5037650;28;20193;-59
2020/12/22 07:59:14;;;;;;;7.03;5.20;;;8.20;99.90;;;;;;5039411;28;20116;-58
2020/12/22 08:01:47;;;;;;;4.95;3.25;;;8.30;99.90;;;;;;5033688;28;20037;-58
2020/12/22 08:04:18;;;;;;;5.03;3.85;;;8.40;99.90;;;;;;5032122;28;20021;-59
2020/12/22 08:07:07;;;;;;;5.03;3.30;;;8.40;99.90;;;;;;5030755;28;20026;-58
2020/12/22 08:09:37;;;;;;;4.35;2.70;;;8.50;99.90;;;;;;5072503;28;20049;-59
2020/12/22 08:12:03;;;;;;;6.03;3.45;;;8.50;99.90;;;;;;5031937;28;20034;-59
2020/12/22 08:14:31;;;;;;;4.68;3.33;;;8.50;99.90;;;;;;5036043;28;20072;-59
2020/12/22 08:17:04;;;;;;;3.78;2.72;;;8.70;99.90;;;;;;5041733;28;20038;-59
2020/12/22 08:19:30;;;;;;;2.38;2.10;;;8.70;99.90;;;;;;5037739;28;20105;-59
2020/12/22 08:21:59;;;;;;;3.20;2.05;;;8.70;99.90;;;;;;5036811;28;20020;-59
2020/12/22 08:24:28;;;;;;;2.20;1.83;;;8.80;99.90;;;;;;5035632;28;20118;-60
2020/12/22 08:26:54;;;;;;;3.10;2.05;;;8.80;99.90;;;;;;5043726;28;20021;-59
2020/12/22 08:29:19;;;;;;;4.97;2.17;;;8.90;99.90;;;;;;5060398;28;20025;-59
2020/12/22 08:31:46;;;;;;;2.47;2.13;;;8.90;99.90;;;;;;5042389;28;20051;-57
2020/12/22 08:34:15;;;;;;;2.20;1.75;;;9.00;99.90;;;;;;5038618;28;20034;-59
2020/12/22 08:36:43;;;;;;;1.60;1.50;;;9.00;99.90;;;;;;5035897;28;20033;-59
2020/12/22 08:39:11;;;;;;;2.80;1.77;;;9.10;99.90;;;;;;5036286;28;20045;-59
2020/12/22 08:41:37;;;;;;;2.03;1.65;;;9.10;99.90;;;;;;5043897;28;20043;-59
2020/12/22 08:44:04;;;;;;;2.97;1.55;;;9.20;99.90;;;;;;5041868;28;20073;-59
2020/12/22 08:46:30;;;;;;;2.42;1.38;;;9.30;99.90;;;;;;5039720;28;20067;-59
2020/12/22 08:48:55;;;;;;;2.42;1.80;;;9.30;99.90;;;;;;5038255;28;20436;-59
2020/12/22 08:51:27;;;;;;;2.05;1.48;;;9.40;99.90;;;;;;5041449;28;20033;-59
2020/12/22 08:53:53;;;;;;;1.38;1.10;;;9.50;99.90;;;;;;5048030;28;20029;-59
2020/12/22 08:56:24;;;;;;;2.70;1.70;;;9.50;99.90;;;;;;5038109;28;20436;-59
2020/12/22 08:58:58;;;;;;;1.48;1.10;;;9.50;99.90;;;;;;5042381;28;20033;-59
2020/12/22 09:01:29;;;;;;;1.60;1.10;;;9.60;99.90;;;;;;5042644;28;20065;-58
2020/12/22 09:03:57;;;;;;;2.38;1.30;;;9.70;99.90;;;;;;5039101;28;20029;-59
2020/12/22 09:06:47;;;;;;;4.40;1.30;;;9.70;99.90;;;;;;5044088;28;20025;-59
2020/12/22 09:09:18;;;;;;;1.27;1.17;;;9.70;99.90;;;;;;5031511;28;20030;-59
2020/12/22 09:11:45;;;;;;;1.42;0.93;;;9.80;99.90;;;;;;5038130;28;20029;-59
2020/12/22 09:14:13;;;;;;;1.75;1.20;;;9.90;99.90;;;;;;5044724;28;20033;-60
2020/12/22 09:16:49;;;;;;;3.20;1.20;;;9.90;99.90;;;;;;5043772;28;20028;-59
2020/12/22 09:19:19;;;;;;;2.97;0.80;;;10.00;99.90;;;;;;5037407;28;20423;-59
2020/12/22 09:21:45;;;;;;;1.38;0.80;;;10.00;99.90;;;;;;5038069;28;20052;-60
2020/12/22 09:24:18;;;;;;;1.30;1.05;;;10.10;99.90;;;;;;5036584;28;20041;-59
2020/12/22 09:26:59;;;;;;;1.48;1.20;;;10.20;99.90;;;;;;5034578;28;20017;-59
2020/12/22 09:29:26;;;;;;;1.67;1.10;;;10.20;99.90;;;;;;5036454;28;20546;-60
2020/12/22 09:31:53;;;;;;;1.98;0.77;;;10.20;99.90;;;;;;5036146;28;20100;-59
2020/12/22 09:34:19;;;;;;;1.02;0.98;;;10.20;99.90;;;;;;5035737;28;20124;-60
2020/12/22 09:36:50;;;;;;;2.90;1.08;;;10.20;99.90;;;;;;5033463;28;20393;-59
2020/12/22 09:39:15;;;;;;;1.15;1.05;;;10.30;99.90;;;;;;5034874;28;20544;-59
2020/12/22 09:41:42;;;;;;;2.58;1.60;;;10.30;99.90;;;;;;5045119;28;20032;-59
2020/12/22 09:44:08;;;;;;;1.73;1.02;;;10.40;99.90;;;;;;5036789;28;20076;-59
2020/12/22 09:46:33;;;;;;;3.88;1.33;;;10.40;99.90;;;;;;5033826;28;20037;-59
2020/12/22 09:48:59;;;;;;;2.28;0.77;;;10.50;99.90;;;;;;5033771;28;20025;-59
2020/12/22 09:51:24;;;;;;;1.40;1.20;;;10.50;99.90;;;;;;5073288;28;20029;-59
2020/12/22 09:53:50;;;;;;;2.22;1.35;;;10.60;99.90;;;;;;5036982;28;20063;-59
2020/12/22 09:56:16;;;;;;;1.27;1.00;;;10.70;99.90;;;;;;5039426;28;20029;-59
2020/12/22 09:58:41;;;;;;;1.70;1.23;;;10.80;99.90;;;;;;5033320;28;20045;-60
2020/12/22 10:01:06;;;;;;;1.70;1.60;;;10.90;99.90;;;;;;5047091;28;20428;-59
2020/12/22 10:03:32;;;;;;;1.25;0.93;;;10.90;99.90;;;;;;5040771;28;20033;-59
2020/12/22 10:05:57;;;;;;;1.00;0.90;;;11.10;99.90;;;;;;5034166;28;20036;-57
2020/12/22 10:08:23;;;;;;;0.90;0.77;;;11.20;99.90;;;;;;5032768;28;20030;-60
2020/12/22 10:10:48;;;;;;;0.90;0.70;;;11.20;99.90;;;;;;5037443;28;20029;-59
2020/12/22 10:13:14;;;;;;;0.70;0.70;;;11.30;99.90;;;;;;5042894;28;20029;-59
2020/12/22 10:15:39;;;;;;;3.97;0.77;;;11.20;99.90;;;;;;5033588;28;20041;-59
2020/12/22 10:18:09;;;;;;;1.38;0.93;;;11.30;99.90;;;;;;5037750;28;20036;-59
2020/12/22 10:20:37;;;;;;;1.35;0.77;;;11.30;99.90;;;;;;5045409;28;20021;-59
2020/12/22 10:23:04;;;;;;;0.75;0.50;;;11.40;99.90;;;;;;5040777;28;20108;-59
2020/12/22 10:25:29;;;;;;;0.95;0.55;;;11.40;99.90;;;;;;5041704;28;20040;-59
2020/12/22 10:27:55;;;;;;;1.10;0.70;;;11.40;99.90;;;;;;5030673;28;20025;-59
2020/12/22 10:30:21;;;;;;;1.27;1.17;;;11.40;99.90;;;;;;5044926;28;20478;-59
2020/12/22 10:32:46;;;;;;;1.42;0.90;;;11.40;99.90;;;;;;5038437;28;20040;-59
2020/12/22 10:35:12;;;;;;;0.60;0.60;;;11.40;99.90;;;;;;5038857;28;21774;-59
2020/12/22 10:37:37;;;;;;;0.70;0.57;;;11.40;99.90;;;;;;5033117;28;20087;-59
2020/12/22 10:40:03;;;;;;;1.85;0.60;;;11.40;99.90;;;;;;5036249;28;20037;-59
2020/12/22 10:42:29;;;;;;;0.50;0.50;;;11.40;99.90;;;;;;5038579;28;20075;-59
2020/12/22 10:44:54;;;;;;;0.40;0.40;;;11.50;99.90;;;;;;5036787;28;20057;-59
2020/12/22 10:47:20;;;;;;;0.82;0.70;;;11.50;99.90;;;;;;5044282;28;20028;-59
2020/12/22 10:49:45;;;;;;;1.13;0.47;;;11.60;99.90;;;;;;5043956;28;20057;-59
2020/12/22 10:52:11;;;;;;;0.63;0.50;;;11.60;99.90;;;;;;5035601;28;20022;-60
2020/12/22 10:54:36;;;;;;;0.80;0.77;;;11.60;99.90;;;;;;5037590;28;20040;-60
2020/12/22 10:57:02;;;;;;;1.85;0.75;;;11.70;99.90;;;;;;5037882;28;20028;-59
2020/12/22 10:59:27;;;;;;;0.80;0.45;;;11.70;99.90;;;;;;5036586;28;20022;-59
2020/12/22 11:01:53;;;;;;;4.78;0.90;;;11.80;99.90;;;;;;5041959;28;20036;-59
2020/12/22 11:04:18;;;;;;;0.60;0.60;;;11.80;99.90;;;;;;5043216;28;20481;-59
2020/12/22 11:09:19;;;;;;;1.45;0.65;;;11.90;99.90;;;;;;5032861;28;20181;-59
2020/12/22 11:11:46;;;;;;;1.00;0.77;;;11.90;99.90;;;;;;5041568;28;20111;-59
2020/12/22 11:14:13;;;;;;;0.50;0.50;;;11.90;99.90;;;;;;5046914;28;20265;-59
2020/12/22 11:16:39;;;;;;;1.17;0.65;;;11.90;99.90;;;;;;5044232;28;20398;-59
2020/12/22 11:19:04;;;;;;;1.02;0.90;;;11.90;99.90;;;;;;5041465;28;20048;-59
2020/12/22 11:21:30;;;;;;;2.03;0.70;;;11.90;99.90;;;;;;5047995;28;20059;-59
2020/12/22 11:23:56;;;;;;;1.95;0.70;;;11.90;99.90;;;;;;5042751;28;20036;-59
2020/12/22 11:26:23;;;;;;;2.03;0.88;;;12.00;99.90;;;;;;5040681;28;20020;-59
2020/12/22 11:28:50;;;;;;;0.40;0.30;;;11.90;99.90;;;;;;5062410;28;20120;-59
2020/12/22 11:31:15;;;;;;;1.65;0.60;;;12.00;99.90;;;;;;5037252;28;20074;-59
2020/12/22 11:33:41;;;;;;;1.25;0.75;;;12.00;99.90;;;;;;5037345;28;20033;-59
2020/12/22 11:36:10;;;;;;;0.75;0.68;;;12.00;99.90;;;;;;5037067;28;20024;-59
2020/12/22 11:38:35;;;;;;;1.30;0.88;;;12.00;99.90;;;;;;5036796;28;20067;-60
2020/12/22 11:41:01;;;;;;;2.17;0.80;;;12.10;99.90;;;;;;5033386;28;20172;-59
2020/12/22 11:43:26;;;;;;;3.03;1.30;;;12.10;99.90;;;;;;5047778;28;20028;-59
2020/12/22 11:45:52;;;;;;;1.45;0.95;;;12.10;99.90;;;;;;5044785;28;20029;-59
2020/12/22 11:48:17;;;;;;;1.35;0.88;;;12.10;99.90;;;;;;5048105;28;20047;-60
2020/12/22 11:50:43;;;;;;;0.73;0.60;;;12.10;99.90;;;;;;5040435;28;20077;-59
2020/12/22 11:53:09;;;;;;;2.35;0.68;;;12.10;99.90;;;;;;5038431;28;20041;-59
2020/12/22 11:55:35;;;;;;;1.38;0.80;;;12.20;99.90;;;;;;5034714;28;20049;-59
2020/12/22 11:58:00;;;;;;;1.50;1.10;;;12.20;99.90;;;;;;5037379;28;20044;-59
2020/12/22 12:00:26;;;;;;;1.60;1.20;;;12.20;99.90;;;;;;5038021;28;20024;-59
2020/12/22 12:02:51;;;;;;;1.83;1.10;;;12.30;99.90;;;;;;5035657;28;20044;-59
2020/12/22 12:05:17;;;;;;;2.03;1.20;;;12.30;99.90;;;;;;5039248;28;20036;-59
2020/12/22 12:07:42;;;;;;;2.95;1.08;;;12.30;99.90;;;;;;5032896;28;20044;-59
2020/12/22 12:10:08;;;;;;;0.68;0.60;;;12.30;99.90;;;;;;5036663;28;20043;-59
2020/12/22 12:12:34;;;;;;;2.88;0.60;;;12.30;99.90;;;;;;5035438;28;20120;-59
2020/12/22 12:15:01;;;;;;;1.02;0.70;;;12.30;99.90;;;;;;5031568;28;20525;-60
2020/12/22 12:17:26;;;;;;;1.73;0.70;;;12.30;99.90;;;;;;5042926;28;20075;-59
2020/12/22 12:19:52;;;;;;;1.35;0.93;;;12.20;99.90;;;;;;5033207;28;20033;-59
2020/12/22 12:22:17;;;;;;;1.02;0.93;;;12.20;99.90;;;;;;5032214;28;20044;-59
2020/12/22 12:24:43;;;;;;;1.13;0.95;;;12.30;99.90;;;;;;5036076;28;20030;-60
2020/12/22 12:27:08;;;;;;;0.70;0.52;;;12.30;99.90;;;;;;5035604;28;20036;-59
2020/12/22 12:29:33;;;;;;;0.90;0.90;;;12.30;99.90;;;;;;5036903;28;20037;-60
2020/12/22 12:31:59;;;;;;;1.55;0.65;;;12.40;99.90;;;;;;5035619;28;20039;-60
2020/12/22 12:34:24;;;;;;;2.28;0.70;;;12.60;99.90;;;;;;5036126;28;20115;-59
2020/12/22 12:36:53;;;;;;;0.57;0.57;;;12.60;99.90;;;;;;5036731;28;20068;-59
2020/12/22 12:39:19;;;;;;;1.13;0.55;;;12.70;99.90;;;;;;5035620;28;20033;-59
2020/12/22 12:41:48;;;;;;;0.70;0.70;;;12.70;99.90;;;;;;5047021;28;20036;-59
2020/12/22 12:44:14;;;;;;;0.70;0.60;;;12.80;99.90;;;;;;5040571;28;20508;-59
2020/12/22 12:46:39;;;;;;;0.80;0.80;;;12.90;99.90;;;;;;5041751;28;20044;-59